sensor_id;sensor_type;location;lat;lon;timestamp;pressure;altitude;pressure_sealevel;temperature;humidity
63090;BME280;49174;43.198;27.824;2022-10-22T00:00:29;102645.91;;;4.37;87.95
63090;BME280;49174;43.198;27.824;2022-10-22T00:02:54;102649.56;;;4.36;88.41
63090;BME280;49174;43.198;27.824;2022-10-22T00:05:20;102641.78;;;4.33;88.88
63090;BME280;49174;43.198;27.824;2022-10-22T00:07:45;102630.63;;;4.39;91.17
63090;BME280;49174;43.198;27.824;2022-10-22T00:10:11;102631.47;;;4.53;94.38
63090;BME280;49174;43.198;27.824;2022-10-22T00:12:37;102631.88;;;4.59;94.77
63090;BME280;49174;43.198;27.824;2022-10-22T00:15:03;102624.13;;;4.67;95.30
63090;BME280;49174;43.198;27.824;2022-10-22T00:17:29;102613.63;;;4.77;93.65
63090;BME280;49174;43.198;27.824;2022-10-22T00:19:55;102626.66;;;4.82;93.37
63090;BME280;49174;43.198;27.824;2022-10-22T00:22:21;102623.88;;;4.83;93.97
63090;BME280;49174;43.198;27.824;2022-10-22T00:24:46;102621.94;;;4.85;93.24
63090;BME280;49174;43.198;27.824;2022-10-22T00:27:12;102613.69;;;4.88;92.53
63090;BME280;49174;43.198;27.824;2022-10-22T00:29:38;102612.84;;;4.88;91.15
63090;BME280;49174;43.198;27.824;2022-10-22T00:32:03;102605.91;;;4.85;90.54
63090;BME280;49174;43.198;27.824;2022-10-22T00:34:29;102602.47;;;4.83;90.50
63090;BME280;49174;43.198;27.824;2022-10-22T00:36:55;102606.00;;;4.84;90.89
63090;BME280;49174;43.198;27.824;2022-10-22T00:39:23;102593.63;;;4.83;89.32
63090;BME280;49174;43.198;27.824;2022-10-22T00:41:50;102593.94;;;4.78;89.10
63090;BME280;49174;43.198;27.824;2022-10-22T00:47:19;102589.09;;;4.59;88.00
63090;BME280;49174;43.198;27.824;2022-10-22T00:49:47;102591.28;;;4.54;88.27
63090;BME280;49174;43.198;27.824;2022-10-22T00:52:14;102587.22;;;4.48;88.21
63090;BME280;49174;43.198;27.824;2022-10-22T00:54:40;102581.78;;;4.37;88.11
63090;BME280;49174;43.198;27.824;2022-10-22T00:57:06;102577.34;;;4.25;87.27
63090;BME280;49174;43.198;27.824;2022-10-22T00:59:32;102575.34;;;4.16;88.30
63090;BME280;49174;43.198;27.824;2022-10-22T01:01:58;102575.66;;;4.11;88.67
63090;BME280;49174;43.198;27.824;2022-10-22T01:04:23;102578.53;;;4.08;89.89
63090;BME280;49174;43.198;27.824;2022-10-22T01:06:49;102584.72;;;4.09;90.10
63090;BME280;49174;43.198;27.824;2022-10-22T01:09:50;102574.06;;;4.09;90.49
63090;BME280;49174;43.198;27.824;2022-10-22T01:12:22;102571.28;;;4.10;92.33
63090;BME280;49174;43.198;27.824;2022-10-22T01:20:44;102566.13;;;4.20;92.21
63090;BME280;49174;43.198;27.824;2022-10-22T01:26:05;102552.66;;;4.21;92.04
63090;BME280;49174;43.198;27.824;2022-10-22T01:28:49;102560.38;;;4.13;91.31
63090;BME280;49174;43.198;27.824;2022-10-22T01:31:18;102550.63;;;4.12;91.88
63090;BME280;49174;43.198;27.824;2022-10-22T01:33:46;102559.53;;;4.13;92.98
63090;BME280;49174;43.198;27.824;2022-10-22T01:36:13;102550.75;;;4.11;93.51
63090;BME280;49174;43.198;27.824;2022-10-22T01:38:40;102552.47;;;4.12;93.48
63090;BME280;49174;43.198;27.824;2022-10-22T01:41:07;102550.00;;;4.09;93.01
63090;BME280;49174;43.198;27.824;2022-10-22T01:43:33;102547.34;;;4.09;93.42
63090;BME280;49174;43.198;27.824;2022-10-22T01:46:01;102543.59;;;4.11;93.51
63090;BME280;49174;43.198;27.824;2022-10-22T01:51:26;102537.09;;;4.15;91.67
63090;BME280;49174;43.198;27.824;2022-10-22T02:07:06;102544.13;;;4.03;92.74
63090;BME280;49174;43.198;27.824;2022-10-22T02:09:34;102551.44;;;4.01;92.05
63090;BME280;49174;43.198;27.824;2022-10-22T02:12:04;102549.47;;;4.03;90.82
63090;BME280;49174;43.198;27.824;2022-10-22T02:14:32;102556.03;;;3.99;90.35
63090;BME280;49174;43.198;27.824;2022-10-22T02:16:59;102543.63;;;3.98;90.71
63090;BME280;49174;43.198;27.824;2022-10-22T02:19:52;102547.59;;;3.93;89.83
63090;BME280;49174;43.198;27.824;2022-10-22T02:22:19;102541.81;;;3.86;90.16
63090;BME280;49174;43.198;27.824;2022-10-22T02:24:46;102556.69;;;3.77;89.50
63090;BME280;49174;43.198;27.824;2022-10-22T02:27:18;102551.03;;;3.69;89.35
63090;BME280;49174;43.198;27.824;2022-10-22T02:30:04;102547.81;;;3.64;89.49
63090;BME280;49174;43.198;27.824;2022-10-22T02:32:44;102549.00;;;3.60;89.79
63090;BME280;49174;43.198;27.824;2022-10-22T02:35:16;102540.34;;;3.56;90.77
63090;BME280;49174;43.198;27.824;2022-10-22T02:37:43;102542.16;;;3.56;91.69
63090;BME280;49174;43.198;27.824;2022-10-22T02:40:10;102541.84;;;3.48;89.66
63090;BME280;49174;43.198;27.824;2022-10-22T02:42:37;102535.31;;;3.39;89.53
63090;BME280;49174;43.198;27.824;2022-10-22T02:45:04;102534.16;;;3.30;89.29
63090;BME280;49174;43.198;27.824;2022-10-22T02:47:29;102528.41;;;3.24;90.12
63090;BME280;49174;43.198;27.824;2022-10-22T02:49:55;102537.34;;;3.23;90.86
63090;BME280;49174;43.198;27.824;2022-10-22T02:52:20;102533.50;;;3.14;91.33
63090;BME280;49174;43.198;27.824;2022-10-22T02:54:46;102526.53;;;3.11;92.06
63090;BME280;49174;43.198;27.824;2022-10-22T02:57:11;102526.34;;;3.14;92.96
63090;BME280;49174;43.198;27.824;2022-10-22T02:59:37;102522.72;;;3.16;92.92
63090;BME280;49174;43.198;27.824;2022-10-22T03:02:02;102517.47;;;3.14;93.54
63090;BME280;49174;43.198;27.824;2022-10-22T03:04:28;102528.81;;;3.18;93.11
63090;BME280;49174;43.198;27.824;2022-10-22T03:06:54;102525.50;;;3.14;93.07
63090;BME280;49174;43.198;27.824;2022-10-22T03:09:19;102524.63;;;3.13;92.62
63090;BME280;49174;43.198;27.824;2022-10-22T03:11:45;102524.72;;;3.12;92.74
63090;BME280;49174;43.198;27.824;2022-10-22T03:14:11;102525.81;;;3.09;92.85
63090;BME280;49174;43.198;27.824;2022-10-22T03:16:37;102530.06;;;3.12;93.88
63090;BME280;49174;43.198;27.824;2022-10-22T03:19:02;102522.72;;;3.16;94.66
63090;BME280;49174;43.198;27.824;2022-10-22T03:21:35;102523.91;;;3.24;94.63
63090;BME280;49174;43.198;27.824;2022-10-22T03:24:15;102519.63;;;3.22;93.03
63090;BME280;49174;43.198;27.824;2022-10-22T03:26:44;102520.81;;;3.18;92.88
63090;BME280;49174;43.198;27.824;2022-10-22T03:29:13;102507.66;;;3.14;91.89
63090;BME280;49174;43.198;27.824;2022-10-22T03:31:39;102509.81;;;3.09;92.06
63090;BME280;49174;43.198;27.824;2022-10-22T03:34:05;102511.72;;;3.07;92.63
63090;BME280;49174;43.198;27.824;2022-10-22T03:36:31;102504.78;;;3.05;93.12
63090;BME280;49174;43.198;27.824;2022-10-22T03:38:59;102507.47;;;3.05;94.01
63090;BME280;49174;43.198;27.824;2022-10-22T03:41:25;102517.16;;;3.06;94.64
63090;BME280;49174;43.198;27.824;2022-10-22T03:43:51;102513.44;;;3.08;94.46
63090;BME280;49174;43.198;27.824;2022-10-22T03:46:18;102515.16;;;3.09;94.85
63090;BME280;49174;43.198;27.824;2022-10-22T03:48:44;102515.78;;;3.13;94.50
63090;BME280;49174;43.198;27.824;2022-10-22T03:51:10;102511.94;;;3.17;94.83
63090;BME280;49174;43.198;27.824;2022-10-22T03:53:36;102517.94;;;3.21;95.78
63090;BME280;49174;43.198;27.824;2022-10-22T03:56:01;102505.31;;;3.23;95.62
63090;BME280;49174;43.198;27.824;2022-10-22T03:58:27;102519.22;;;3.28;95.54
63090;BME280;49174;43.198;27.824;2022-10-22T04:00:52;102504.72;;;3.32;94.60
63090;BME280;49174;43.198;27.824;2022-10-22T04:03:19;102508.09;;;3.34;94.29
63090;BME280;49174;43.198;27.824;2022-10-22T04:05:44;102502.47;;;3.39;93.96
63090;BME280;49174;43.198;27.824;2022-10-22T04:08:10;102507.25;;;3.33;92.02
63090;BME280;49174;43.198;27.824;2022-10-22T04:10:35;102511.13;;;3.29;92.31
63090;BME280;49174;43.198;27.824;2022-10-22T04:13:01;102511.19;;;3.28;92.99
63090;BME280;49174;43.198;27.824;2022-10-22T04:15:26;102506.41;;;3.33;93.65
63090;BME280;49174;43.198;27.824;2022-10-22T04:17:53;102503.84;;;3.31;93.41
63090;BME280;49174;43.198;27.824;2022-10-22T04:20:19;102506.63;;;3.30;93.84
63090;BME280;49174;43.198;27.824;2022-10-22T04:22:45;102508.31;;;3.31;94.39
63090;BME280;49174;43.198;27.824;2022-10-22T04:25:10;102503.84;;;3.31;93.16
63090;BME280;49174;43.198;27.824;2022-10-22T04:27:36;102496.59;;;3.33;92.65
63090;BME280;49174;43.198;27.824;2022-10-22T04:30:03;102499.38;;;3.32;92.94
63090;BME280;49174;43.198;27.824;2022-10-22T04:32:28;102500.75;;;3.25;92.20
63090;BME280;49174;43.198;27.824;2022-10-22T04:34:54;102495.00;;;3.18;93.07
63090;BME280;49174;43.198;27.824;2022-10-22T04:37:20;102497.66;;;3.18;93.56
63090;BME280;49174;43.198;27.824;2022-10-22T04:39:45;102496.91;;;3.16;94.36
63090;BME280;49174;43.198;27.824;2022-10-22T04:42:11;102496.47;;;3.22;95.20
63090;BME280;49174;43.198;27.824;2022-10-22T04:44:37;102499.91;;;3.24;94.70
63090;BME280;49174;43.198;27.824;2022-10-22T04:47:02;102490.63;;;3.30;95.19
63090;BME280;49174;43.198;27.824;2022-10-22T04:49:28;102499.16;;;3.35;95.37
63090;BME280;49174;43.198;27.824;2022-10-22T04:51:53;102499.78;;;3.39;96.03
63090;BME280;49174;43.198;27.824;2022-10-22T04:54:19;102497.53;;;3.45;96.60
63090;BME280;49174;43.198;27.824;2022-10-22T04:56:45;102497.97;;;3.52;97.66
63090;BME280;49174;43.198;27.824;2022-10-22T04:59:11;102490.16;;;3.62;98.05
63090;BME280;49174;43.198;27.824;2022-10-22T05:01:42;102494.13;;;3.69;98.28
63090;BME280;49174;43.198;27.824;2022-10-22T05:04:10;102496.66;;;3.83;99.03
63090;BME280;49174;43.198;27.824;2022-10-22T05:06:36;102494.97;;;4.06;99.77
63090;BME280;49174;43.198;27.824;2022-10-22T05:09:07;102493.97;;;4.20;100.00
63090;BME280;49174;43.198;27.824;2022-10-22T05:11:34;102489.00;;;4.39;100.00
63090;BME280;49174;43.198;27.824;2022-10-22T05:14:02;102488.56;;;4.57;100.00
63090;BME280;49174;43.198;27.824;2022-10-22T05:16:29;102483.56;;;4.76;100.00
63090;BME280;49174;43.198;27.824;2022-10-22T05:18:57;102478.91;;;5.02;100.00
63090;BME280;49174;43.198;27.824;2022-10-22T05:21:23;102485.38;;;5.22;100.00
63090;BME280;49174;43.198;27.824;2022-10-22T05:23:49;102479.94;;;5.46;100.00
63090;BME280;49174;43.198;27.824;2022-10-22T05:26:17;102486.41;;;5.66;100.00
63090;BME280;49174;43.198;27.824;2022-10-22T05:39:35;102498.06;;;7.28;100.00
63090;BME280;49174;43.198;27.824;2022-10-22T05:42:04;102494.78;;;7.45;100.00
63090;BME280;49174;43.198;27.824;2022-10-22T05:44:30;102498.81;;;7.60;100.00
63090;BME280;49174;43.198;27.824;2022-10-22T05:46:55;102493.09;;;7.75;100.00
63090;BME280;49174;43.198;27.824;2022-10-22T05:49:21;102490.00;;;7.89;99.39
63090;BME280;49174;43.198;27.824;2022-10-22T05:51:46;102489.34;;;8.06;99.33
63090;BME280;49174;43.198;27.824;2022-10-22T05:54:17;102490.69;;;8.22;97.04
63090;BME280;49174;43.198;27.824;2022-10-22T05:56:43;102479.97;;;8.41;94.63
63090;BME280;49174;43.198;27.824;2022-10-22T05:59:10;102479.56;;;8.56;93.09
63090;BME280;49174;43.198;27.824;2022-10-22T06:01:38;102468.38;;;8.70;91.09
63090;BME280;49174;43.198;27.824;2022-10-22T06:04:05;102462.00;;;8.81;89.06
63090;BME280;49174;43.198;27.824;2022-10-22T06:09:10;102472.56;;;9.02;89.30
63090;BME280;49174;43.198;27.824;2022-10-22T06:11:37;102466.31;;;9.11;89.33
63090;BME280;49174;43.198;27.824;2022-10-22T06:14:04;102472.69;;;9.20;89.38
63090;BME280;49174;43.198;27.824;2022-10-22T06:16:30;102457.78;;;9.25;89.13
63090;BME280;49174;43.198;27.824;2022-10-22T06:18:57;102463.69;;;9.38;87.29
63090;BME280;49174;43.198;27.824;2022-10-22T06:21:23;102466.38;;;9.48;87.14
63090;BME280;49174;43.198;27.824;2022-10-22T06:23:48;102462.63;;;9.59;85.64
63090;BME280;49174;43.198;27.824;2022-10-22T06:26:14;102477.78;;;9.70;85.90
63090;BME280;49174;43.198;27.824;2022-10-22T06:28:42;102465.34;;;9.87;83.51
63090;BME280;49174;43.198;27.824;2022-10-22T06:31:08;102465.53;;;10.03;82.37
63090;BME280;49174;43.198;27.824;2022-10-22T06:33:35;102475.34;;;10.22;79.00
63090;BME280;49174;43.198;27.824;2022-10-22T06:36:14;102472.63;;;10.32;79.47
63090;BME280;49174;43.198;27.824;2022-10-22T06:38:41;102477.41;;;10.38;79.47
63090;BME280;49174;43.198;27.824;2022-10-22T06:41:09;102474.47;;;10.49;79.30
63090;BME280;49174;43.198;27.824;2022-10-22T06:43:35;102469.00;;;10.59;78.97
63090;BME280;49174;43.198;27.824;2022-10-22T06:46:03;102474.00;;;10.71;78.05
63090;BME280;49174;43.198;27.824;2022-10-22T06:48:30;102460.44;;;10.81;75.34
63090;BME280;49174;43.198;27.824;2022-10-22T06:51:00;102469.25;;;10.91;76.48
63090;BME280;49174;43.198;27.824;2022-10-22T06:53:25;102457.53;;;11.01;75.40
63090;BME280;49174;43.198;27.824;2022-10-22T06:55:51;102462.81;;;11.10;75.50
63090;BME280;49174;43.198;27.824;2022-10-22T06:58:17;102458.50;;;11.17;74.78
63090;BME280;49174;43.198;27.824;2022-10-22T07:00:42;102453.44;;;11.23;76.23
63090;BME280;49174;43.198;27.824;2022-10-22T07:03:11;102450.00;;;11.38;74.37
63090;BME280;49174;43.198;27.824;2022-10-22T07:05:37;102443.97;;;11.53;74.74
63090;BME280;49174;43.198;27.824;2022-10-22T07:08:03;102438.66;;;11.69;74.69
63090;BME280;49174;43.198;27.824;2022-10-22T07:10:29;102441.31;;;11.87;73.87
63090;BME280;49174;43.198;27.824;2022-10-22T07:12:56;102448.94;;;12.00;70.76
63090;BME280;49174;43.198;27.824;2022-10-22T07:15:23;102440.50;;;12.11;70.85
63090;BME280;49174;43.198;27.824;2022-10-22T07:17:49;102431.41;;;12.28;68.22
63090;BME280;49174;43.198;27.824;2022-10-22T07:20:17;102440.41;;;12.45;68.11
63090;BME280;49174;43.198;27.824;2022-10-22T07:22:44;102444.13;;;12.61;68.67
63090;BME280;49174;43.198;27.824;2022-10-22T07:25:10;102433.81;;;12.72;67.75
63090;BME280;49174;43.198;27.824;2022-10-22T07:27:35;102427.19;;;12.83;66.97
63090;BME280;49174;43.198;27.824;2022-10-22T07:30:01;102425.16;;;12.93;65.08
63090;BME280;49174;43.198;27.824;2022-10-22T07:32:27;102432.44;;;13.01;65.81
63090;BME280;49174;43.198;27.824;2022-10-22T07:34:53;102433.28;;;13.10;65.04
63090;BME280;49174;43.198;27.824;2022-10-22T07:37:18;102421.22;;;13.21;64.41
63090;BME280;49174;43.198;27.824;2022-10-22T07:39:48;102434.44;;;13.32;62.83
63090;BME280;49174;43.198;27.824;2022-10-22T07:42:14;102436.59;;;13.45;63.19
63090;BME280;49174;43.198;27.824;2022-10-22T07:44:39;102425.38;;;13.56;63.26
63090;BME280;49174;43.198;27.824;2022-10-22T07:47:05;102424.34;;;13.65;62.67
63090;BME280;49174;43.198;27.824;2022-10-22T07:49:30;102418.50;;;13.76;62.36
63090;BME280;49174;43.198;27.824;2022-10-22T07:51:56;102409.31;;;13.85;62.61
63090;BME280;49174;43.198;27.824;2022-10-22T07:54:22;102417.41;;;13.94;61.84
63090;BME280;49174;43.198;27.824;2022-10-22T07:56:48;102412.28;;;13.99;62.16
63090;BME280;49174;43.198;27.824;2022-10-22T07:59:13;102415.13;;;14.05;61.66
63090;BME280;49174;43.198;27.824;2022-10-22T08:01:39;102403.16;;;14.15;62.03
63090;BME280;49174;43.198;27.824;2022-10-22T08:04:04;102407.34;;;14.25;60.65
63090;BME280;49174;43.198;27.824;2022-10-22T08:06:33;102410.69;;;14.36;60.56
63090;BME280;49174;43.198;27.824;2022-10-22T08:08:58;102413.34;;;14.44;58.74
63090;BME280;49174;43.198;27.824;2022-10-22T08:11:24;102411.22;;;14.54;57.85
63090;BME280;49174;43.198;27.824;2022-10-22T08:13:51;102399.44;;;14.62;58.84
63090;BME280;49174;43.198;27.824;2022-10-22T08:16:17;102402.09;;;14.70;57.51
63090;BME280;49174;43.198;27.824;2022-10-22T08:18:43;102405.59;;;14.79;58.12
63090;BME280;49174;43.198;27.824;2022-10-22T08:21:10;102402.78;;;14.87;55.16
63090;BME280;49174;43.198;27.824;2022-10-22T08:23:35;102395.59;;;14.94;57.12
63090;BME280;49174;43.198;27.824;2022-10-22T08:26:01;102391.75;;;15.03;58.54
63090;BME280;49174;43.198;27.824;2022-10-22T08:28:27;102385.19;;;15.12;55.38
63090;BME280;49174;43.198;27.824;2022-10-22T08:30:54;102386.13;;;15.19;56.15
63090;BME280;49174;43.198;27.824;2022-10-22T08:33:20;102386.88;;;15.28;54.70
63090;BME280;49174;43.198;27.824;2022-10-22T08:35:50;102379.09;;;15.40;55.31
63090;BME280;49174;43.198;27.824;2022-10-22T08:38:17;102370.34;;;15.59;54.96
63090;BME280;49174;43.198;27.824;2022-10-22T08:40:46;102367.81;;;15.73;53.91
63090;BME280;49174;43.198;27.824;2022-10-22T08:46:16;102356.13;;;15.94;54.20
63090;BME280;49174;43.198;27.824;2022-10-22T08:48:53;102365.47;;;16.06;54.32
63090;BME280;49174;43.198;27.824;2022-10-22T08:51:22;102367.50;;;16.19;54.57
63090;BME280;49174;43.198;27.824;2022-10-22T08:54:12;102356.13;;;16.37;53.37
63090;BME280;49174;43.198;27.824;2022-10-22T08:56:49;102359.16;;;16.48;53.52
63090;BME280;49174;43.198;27.824;2022-10-22T08:59:21;102351.28;;;16.60;52.32
63090;BME280;49174;43.198;27.824;2022-10-22T09:01:50;102342.19;;;16.74;51.27
63090;BME280;49174;43.198;27.824;2022-10-22T09:04:22;102352.75;;;16.84;51.21
63090;BME280;49174;43.198;27.824;2022-10-22T09:06:51;102348.41;;;16.96;50.17
63090;BME280;49174;43.198;27.824;2022-10-22T09:09:19;102339.91;;;17.13;51.11
63090;BME280;49174;43.198;27.824;2022-10-22T09:11:50;102334.34;;;17.34;50.44
63090;BME280;49174;43.198;27.824;2022-10-22T09:14:19;102339.66;;;17.49;49.31
63090;BME280;49174;43.198;27.824;2022-10-22T09:27:47;102318.84;;;18.49;47.24
63090;BME280;49174;43.198;27.824;2022-10-22T09:30:16;102319.06;;;18.74;46.29
63090;BME280;49174;43.198;27.824;2022-10-22T09:32:42;102319.63;;;18.96;45.29
63090;BME280;49174;43.198;27.824;2022-10-22T09:35:12;102322.16;;;19.11;44.76
63090;BME280;49174;43.198;27.824;2022-10-22T09:37:51;102317.47;;;19.18;45.53
63090;BME280;49174;43.198;27.824;2022-10-22T09:40:17;102307.78;;;19.23;46.72
63090;BME280;49174;43.198;27.824;2022-10-22T09:42:46;102306.28;;;19.27;46.46
63090;BME280;49174;43.198;27.824;2022-10-22T09:45:39;102309.66;;;19.29;46.52
63090;BME280;49174;43.198;27.824;2022-10-22T09:48:20;102310.28;;;19.31;44.75
63090;BME280;49174;43.198;27.824;2022-10-22T09:50:48;102298.72;;;19.29;44.16
63090;BME280;49174;43.198;27.824;2022-10-22T09:53:29;102301.84;;;19.32;46.23
63090;BME280;49174;43.198;27.824;2022-10-22T09:55:57;102294.88;;;19.36;44.47
63090;BME280;49174;43.198;27.824;2022-10-22T09:58:24;102287.50;;;19.37;44.43
63090;BME280;49174;43.198;27.824;2022-10-22T10:00:56;102277.19;;;19.39;43.95
63090;BME280;49174;43.198;27.824;2022-10-22T10:03:26;102274.88;;;19.36;44.52
63090;BME280;49174;43.198;27.824;2022-10-22T10:05:54;102273.41;;;19.33;44.16
63090;BME280;49174;43.198;27.824;2022-10-22T10:08:22;102273.63;;;19.32;44.87
63090;BME280;49174;43.198;27.824;2022-10-22T10:10:51;102282.03;;;19.37;44.51
63090;BME280;49174;43.198;27.824;2022-10-22T10:21:48;102279.63;;;19.92;42.74
63090;BME280;49174;43.198;27.824;2022-10-22T10:27:10;102270.25;;;20.06;44.30
63090;BME280;49174;43.198;27.824;2022-10-22T10:30:10;102271.47;;;20.11;44.14
63090;BME280;49174;43.198;27.824;2022-10-22T10:35:53;102243.75;;;20.00;41.94
63090;BME280;49174;43.198;27.824;2022-10-22T10:38:41;102247.59;;;19.93;42.40
63090;BME280;49174;43.198;27.824;2022-10-22T10:43:58;102232.63;;;19.95;43.88
63090;BME280;49174;43.198;27.824;2022-10-22T10:49:42;102212.25;;;20.09;42.66
63090;BME280;49174;43.198;27.824;2022-10-22T10:52:35;102202.50;;;20.14;42.10
63090;BME280;49174;43.198;27.824;2022-10-22T10:55:35;102198.50;;;20.16;44.88
63090;BME280;49174;43.198;27.824;2022-10-22T11:01:14;102188.53;;;20.22;42.75
63090;BME280;49174;43.198;27.824;2022-10-22T11:06:21;102171.19;;;20.46;42.32
63090;BME280;49174;43.198;27.824;2022-10-22T11:09:13;102170.28;;;20.52;42.22
63090;BME280;49174;43.198;27.824;2022-10-22T11:11:46;102168.09;;;20.61;41.48
63090;BME280;49174;43.198;27.824;2022-10-22T11:14:18;102156.59;;;20.71;42.72
63090;BME280;49174;43.198;27.824;2022-10-22T11:17:02;102159.63;;;20.81;41.92
63090;BME280;49174;43.198;27.824;2022-10-22T11:22:04;102149.31;;;20.95;42.09
63090;BME280;49174;43.198;27.824;2022-10-22T11:24:41;102154.56;;;20.96;42.09
63090;BME280;49174;43.198;27.824;2022-10-22T11:27:36;102140.16;;;21.01;41.27
63090;BME280;49174;43.198;27.824;2022-10-22T11:30:15;102144.13;;;21.17;41.45
63090;BME280;49174;43.198;27.824;2022-10-22T11:32:42;102130.22;;;21.30;37.97
63090;BME280;49174;43.198;27.824;2022-10-22T11:35:14;102129.78;;;21.45;39.42
63090;BME280;49174;43.198;27.824;2022-10-22T11:37:43;102124.56;;;21.55;41.84
63090;BME280;49174;43.198;27.824;2022-10-22T11:40:18;102111.91;;;21.66;41.69
63090;BME280;49174;43.198;27.824;2022-10-22T11:42:51;102106.56;;;21.71;41.08
63090;BME280;49174;43.198;27.824;2022-10-22T12:00:49;102083.50;;;21.49;40.37
63090;BME280;49174;43.198;27.824;2022-10-22T12:03:23;102088.72;;;21.50;39.70
63090;BME280;49174;43.198;27.824;2022-10-22T12:08:31;102088.38;;;21.47;40.90
63090;BME280;49174;43.198;27.824;2022-10-22T12:16:27;102086.91;;;21.32;40.47
63090;BME280;49174;43.198;27.824;2022-10-22T12:19:02;102076.63;;;21.28;39.90
63090;BME280;49174;43.198;27.824;2022-10-22T12:21:31;102079.34;;;21.28;40.30
63090;BME280;49174;43.198;27.824;2022-10-22T12:23:58;102076.41;;;21.29;41.23
63090;BME280;49174;43.198;27.824;2022-10-22T12:26:27;102070.91;;;21.29;40.97
63090;BME280;49174;43.198;27.824;2022-10-22T12:28:57;102070.28;;;21.27;40.86
63090;BME280;49174;43.198;27.824;2022-10-22T12:31:23;102073.88;;;21.28;41.17
63090;BME280;49174;43.198;27.824;2022-10-22T12:33:59;102064.66;;;21.22;42.92
63090;BME280;49174;43.198;27.824;2022-10-22T12:36:26;102060.13;;;21.16;41.12
63090;BME280;49174;43.198;27.824;2022-10-22T12:38:52;102055.13;;;21.13;41.99
63090;BME280;49174;43.198;27.824;2022-10-22T12:41:18;102056.06;;;21.07;41.75
63090;BME280;49174;43.198;27.824;2022-10-22T12:43:43;102051.75;;;20.99;40.71
63090;BME280;49174;43.198;27.824;2022-10-22T12:46:12;102057.56;;;20.91;40.15
63090;BME280;49174;43.198;27.824;2022-10-22T12:48:41;102051.09;;;20.85;41.58
63090;BME280;49174;43.198;27.824;2022-10-22T12:51:14;102056.81;;;20.84;41.90
63090;BME280;49174;43.198;27.824;2022-10-22T12:53:46;102044.03;;;20.78;38.54
63090;BME280;49174;43.198;27.824;2022-10-22T12:56:24;102053.00;;;20.73;40.18
63090;BME280;49174;43.198;27.824;2022-10-22T13:01:24;102041.03;;;20.67;43.14
63090;BME280;49174;43.198;27.824;2022-10-22T13:04:14;102044.38;;;20.69;43.63
63090;BME280;49174;43.198;27.824;2022-10-22T13:06:45;102042.91;;;20.67;42.64
63090;BME280;49174;43.198;27.824;2022-10-22T13:09:16;102042.56;;;20.63;40.92
63090;BME280;49174;43.198;27.824;2022-10-22T13:12:01;102033.72;;;20.61;41.09
63090;BME280;49174;43.198;27.824;2022-10-22T13:14:31;102038.97;;;20.63;41.34
63090;BME280;49174;43.198;27.824;2022-10-22T13:19:38;102021.22;;;20.65;44.95
63090;BME280;49174;43.198;27.824;2022-10-22T13:22:04;102018.25;;;20.67;44.12
63090;BME280;49174;43.198;27.824;2022-10-22T13:24:30;102020.97;;;20.67;41.68
63090;BME280;49174;43.198;27.824;2022-10-22T13:26:55;102025.88;;;20.65;40.19
63090;BME280;49174;43.198;27.824;2022-10-22T13:29:22;102027.53;;;20.66;40.43
63090;BME280;49174;43.198;27.824;2022-10-22T13:31:51;102025.28;;;20.63;39.91
63090;BME280;49174;43.198;27.824;2022-10-22T13:34:22;102022.53;;;20.63;41.96
63090;BME280;49174;43.198;27.824;2022-10-22T13:36:48;102021.09;;;20.60;42.29
63090;BME280;49174;43.198;27.824;2022-10-22T13:39:22;102015.72;;;20.53;41.68
63090;BME280;49174;43.198;27.824;2022-10-22T13:41:48;102025.41;;;20.49;41.95
63090;BME280;49174;43.198;27.824;2022-10-22T13:44:17;102022.16;;;20.41;41.23
63090;BME280;49174;43.198;27.824;2022-10-22T13:46:45;102027.88;;;20.39;44.68
63090;BME280;49174;43.198;27.824;2022-10-22T13:49:16;102020.09;;;20.36;46.46
63090;BME280;49174;43.198;27.824;2022-10-22T13:51:42;102017.84;;;20.33;47.30
63090;BME280;49174;43.198;27.824;2022-10-22T13:54:15;102022.59;;;20.26;48.01
63090;BME280;49174;43.198;27.824;2022-10-22T13:56:42;102009.56;;;20.21;48.08
63090;BME280;49174;43.198;27.824;2022-10-22T13:59:08;102016.81;;;20.16;49.57
63090;BME280;49174;43.198;27.824;2022-10-22T14:01:35;102002.94;;;20.11;49.51
63090;BME280;49174;43.198;27.824;2022-10-22T14:04:03;102003.03;;;20.04;49.05
63090;BME280;49174;43.198;27.824;2022-10-22T14:06:31;102008.75;;;19.84;48.45
63090;BME280;49174;43.198;27.824;2022-10-22T14:09:02;101995.19;;;19.71;48.40
63090;BME280;49174;43.198;27.824;2022-10-22T14:11:28;101989.81;;;19.57;49.15
63090;BME280;49174;43.198;27.824;2022-10-22T14:13:57;101989.91;;;19.51;49.14
63090;BME280;49174;43.198;27.824;2022-10-22T14:16:27;101989.97;;;19.44;49.96
63090;BME280;49174;43.198;27.824;2022-10-22T14:18:55;101991.94;;;19.37;51.98
63090;BME280;49174;43.198;27.824;2022-10-22T14:21:22;101992.84;;;19.31;51.00
63090;BME280;49174;43.198;27.824;2022-10-22T14:23:48;101990.41;;;19.23;50.10
63090;BME280;49174;43.198;27.824;2022-10-22T14:26:24;101992.56;;;19.14;49.30
63090;BME280;49174;43.198;27.824;2022-10-22T14:28:52;101988.81;;;19.08;48.09
63090;BME280;49174;43.198;27.824;2022-10-22T14:31:18;101993.50;;;19.01;47.06
63090;BME280;49174;43.198;27.824;2022-10-22T14:33:44;102000.25;;;18.98;45.39
63090;BME280;49174;43.198;27.824;2022-10-22T14:36:14;102001.53;;;18.96;45.53
63090;BME280;49174;43.198;27.824;2022-10-22T14:38:44;101993.78;;;18.93;46.09
63090;BME280;49174;43.198;27.824;2022-10-22T14:41:18;101995.31;;;18.89;49.45
63090;BME280;49174;43.198;27.824;2022-10-22T14:43:44;101995.56;;;18.81;52.07
63090;BME280;49174;43.198;27.824;2022-10-22T14:46:11;101991.81;;;18.75;52.14